createdAt,value
2023-03-24T00:04:34.768Z,2.86
2023-03-24T00:07:05.305Z,2.78
2023-03-24T00:09:33.984Z,2.69
2023-03-24T00:12:02.285Z,2.61
2023-03-24T00:14:38.940Z,2.59
2023-03-24T00:17:12.866Z,2.61
2023-03-24T00:19:41.576Z,2.60
2023-03-24T00:22:14.781Z,2.59
2023-03-24T00:24:47.237Z,2.56
2023-03-24T00:27:17.793Z,2.54
2023-03-24T00:29:47.411Z,2.53
2023-03-24T00:32:16.189Z,2.47
2023-03-24T00:34:44.584Z,2.40
2023-03-24T00:37:13.411Z,2.36
2023-03-24T00:39:43.237Z,2.31
2023-03-24T00:42:19.017Z,2.26
2023-03-24T00:44:48.082Z,2.21
2023-03-24T00:47:18.116Z,2.17
2023-03-24T00:49:46.392Z,2.15
2023-03-24T00:52:20.522Z,2.16
2023-03-24T00:54:58.410Z,2.19
2023-03-24T00:57:30.072Z,2.21
2023-03-24T01:00:09.519Z,2.22
2023-03-24T01:02:39.389Z,2.21
2023-03-24T01:05:09.694Z,2.21
2023-03-24T01:07:41.815Z,2.16
2023-03-24T01:10:13.283Z,2.14
2023-03-24T01:12:45.428Z,2.11
2023-03-24T01:15:16.318Z,2.07
2023-03-24T01:17:47.449Z,2.00
2023-03-24T01:20:16.222Z,1.96
2023-03-24T01:22:46.430Z,1.92
2023-03-24T01:25:22.042Z,1.91
2023-03-24T01:27:54.215Z,1.92
2023-03-24T01:30:24.821Z,1.90
2023-03-24T01:32:53.862Z,1.83
2023-03-24T01:43:02.280Z,1.76
2023-03-24T01:45:40.417Z,1.69
2023-03-24T01:48:40.991Z,1.64
2023-03-24T01:51:14.008Z,1.58
2023-03-24T01:55:39.354Z,1.49
2023-03-24T01:58:09.184Z,1.41
2023-03-24T02:00:49.053Z,1.39
2023-03-24T02:03:34.352Z,1.42
2023-03-24T02:06:03.726Z,1.48
2023-03-24T02:08:38.502Z,1.52
2023-03-24T02:11:07.098Z,1.55
2023-03-24T02:13:42.006Z,1.56
2023-03-24T02:16:20.238Z,1.56
2023-03-24T02:19:15.279Z,1.53
2023-03-24T02:21:59.506Z,1.47
2023-03-24T02:24:31.110Z,1.40
2023-03-24T02:27:14.683Z,1.37
2023-03-24T02:29:56.395Z,1.33
2023-03-24T02:32:43.747Z,1.29
2023-03-24T02:35:24.501Z,1.26
2023-03-24T02:38:12.114Z,1.24
2023-03-24T02:40:43.627Z,1.28
2023-03-24T02:43:28.551Z,1.34
2023-03-24T02:46:01.378Z,1.40
2023-03-24T02:48:38.426Z,1.42
2023-03-24T02:51:22.128Z,1.42
2023-03-24T02:54:08.849Z,1.43
2023-03-24T02:56:53.111Z,1.46
2023-03-24T02:59:53.713Z,1.46
2023-03-24T03:02:45.695Z,1.44
2023-03-24T03:05:32.758Z,1.44
2023-03-24T03:08:07.107Z,1.44
2023-03-24T03:10:38.509Z,1.43
2023-03-24T03:13:25.216Z,1.42
2023-03-24T03:15:55.991Z,1.42
2023-03-24T03:18:29.487Z,1.42
2023-03-24T03:21:07.504Z,1.44
2023-03-24T03:23:38.961Z,1.49
2023-03-24T03:26:14.120Z,1.51
2023-03-24T03:28:50.581Z,1.58
2023-03-24T03:31:23.974Z,1.64
2023-03-24T03:34:00.102Z,1.71
2023-03-24T03:36:34.329Z,1.76
2023-03-24T03:39:16.322Z,1.81
2023-03-24T03:41:45.682Z,1.85
2023-03-24T03:44:14.493Z,1.88
2023-03-24T03:46:48.246Z,1.90
2023-03-24T03:49:22.096Z,1.91
2023-03-24T03:51:57.632Z,1.89
2023-03-24T03:54:26.457Z,1.85
2023-03-24T03:56:55.129Z,1.82
2023-03-24T03:59:31.381Z,1.81
2023-03-24T04:02:07.787Z,1.80
2023-03-24T04:05:14.415Z,1.83
2023-03-24T04:07:52.555Z,1.89
2023-03-24T04:11:16.878Z,2.03
2023-03-24T04:14:34.980Z,2.39
2023-03-24T04:17:45.955Z,2.75
2023-03-24T04:20:32.896Z,3.12
2023-03-24T04:23:09.629Z,3.49
2023-03-24T04:26:21.173Z,3.86
2023-03-24T04:28:58.421Z,4.30
2023-03-24T04:31:43.408Z,4.61
2023-03-24T04:34:39.593Z,4.88
2023-03-24T04:37:19.715Z,5.19
2023-03-24T04:40:11.242Z,5.29
2023-03-24T04:42:47.009Z,5.24
2023-03-24T04:45:15.797Z,5.14
2023-03-24T04:48:15.007Z,5.01
2023-03-24T04:51:01.464Z,4.91
2023-03-24T04:53:37.296Z,4.84
2023-03-24T04:56:24.721Z,4.77
2023-03-24T04:59:07.567Z,4.70
2023-03-24T05:01:37.885Z,4.67
2023-03-24T05:04:26.023Z,4.66
2023-03-24T05:06:54.791Z,4.67
2023-03-24T05:09:26.036Z,4.67
2023-03-24T05:12:01.509Z,4.70
2023-03-24T05:14:35.627Z,4.79
2023-03-24T05:17:06.023Z,4.89
2023-03-24T05:19:42.293Z,5.01
2023-03-24T05:22:11.509Z,5.13
2023-03-24T05:24:40.910Z,5.23
2023-03-24T05:27:12.121Z,5.30
2023-03-24T05:29:40.632Z,5.36
2023-03-24T05:32:16.300Z,5.44
2023-03-24T05:34:45.765Z,5.59
2023-03-24T05:37:17.923Z,5.78
2023-03-24T05:39:53.279Z,5.99
2023-03-24T05:42:43.348Z,6.23
2023-03-24T05:45:13.236Z,6.39
2023-03-24T05:47:42.233Z,6.54
2023-03-24T05:50:11.086Z,6.66
2023-03-24T05:52:42.799Z,6.76
2023-03-24T05:55:32.218Z,6.80
2023-03-24T05:58:08.773Z,6.83
2023-03-24T06:00:43.572Z,6.90
2023-03-24T06:03:17.715Z,6.96
2023-03-24T06:05:58.605Z,7.05
2023-03-24T06:08:34.149Z,7.21
2023-03-24T06:11:05.700Z,7.53
2023-03-24T06:13:35.473Z,7.91
2023-03-24T06:16:07.847Z,8.34
2023-03-24T06:18:43.505Z,8.76
2023-03-24T06:21:19.429Z,9.20
2023-03-24T06:23:58.778Z,9.66
2023-03-24T06:26:32.106Z,10.10
2023-03-24T06:29:02.719Z,10.56
2023-03-24T06:31:37.496Z,10.94
2023-03-24T06:34:07.031Z,11.25
2023-03-24T06:36:35.528Z,11.54
2023-03-24T06:39:06.376Z,11.77
2023-03-24T06:41:36.034Z,11.89
2023-03-24T06:44:10.163Z,12.08
2023-03-24T06:46:40.954Z,12.31
2023-03-24T06:49:09.697Z,12.49
2023-03-24T06:51:37.965Z,12.68
2023-03-24T06:54:06.473Z,12.88
2023-03-24T06:56:36.621Z,13.12
2023-03-24T06:59:05.830Z,13.34
2023-03-24T07:01:36.392Z,13.51
2023-03-24T07:04:26.227Z,13.67
2023-03-24T07:07:30.980Z,13.75
2023-03-24T07:10:22.145Z,13.81
2023-03-24T07:12:53.518Z,13.89
2023-03-24T07:15:22.033Z,13.94
2023-03-24T07:17:55.548Z,13.99
2023-03-24T07:20:48.560Z,13.99
2023-03-24T07:23:21.993Z,13.94
2023-03-24T07:26:10.800Z,13.85
2023-03-24T07:29:11.885Z,13.75
2023-03-24T07:32:08.274Z,13.69
2023-03-24T07:34:37.990Z,13.70
2023-03-24T07:37:06.631Z,13.68
2023-03-24T07:39:35.123Z,13.72
2023-03-24T07:42:04.872Z,13.79
2023-03-24T07:45:09.253Z,13.92
2023-03-24T07:47:39.190Z,14.15
2023-03-24T07:50:12.449Z,14.41
2023-03-24T07:52:41.965Z,14.62
2023-03-24T07:55:13.002Z,14.90
2023-03-24T07:58:10.215Z,15.15
2023-03-24T08:00:44.983Z,15.31
2023-03-24T08:03:28.103Z,15.43
2023-03-24T08:06:47.682Z,15.51
2023-03-24T08:09:17.944Z,15.66
2023-03-24T08:11:46.505Z,15.72
2023-03-24T08:14:14.993Z,15.79
2023-03-24T08:16:46.422Z,15.91
2023-03-24T08:19:17.304Z,15.97
2023-03-24T08:21:48.563Z,16.00
2023-03-24T08:24:17.735Z,16.01
2023-03-24T08:26:51.109Z,16.16
2023-03-24T08:29:19.683Z,16.34
2023-03-24T08:31:48.001Z,16.47
2023-03-24T08:34:17.300Z,16.67
2023-03-24T08:36:46.694Z,16.85
2023-03-24T08:39:15.497Z,17.09
2023-03-24T08:41:43.744Z,17.37
2023-03-24T08:44:14.056Z,17.68
2023-03-24T08:46:43.512Z,17.89
2023-03-24T08:49:11.913Z,18.07
2023-03-24T08:51:40.143Z,18.26
2023-03-24T08:54:09.711Z,18.46
2023-03-24T08:56:38.062Z,18.63
2023-03-24T08:59:07.136Z,18.71
2023-03-24T09:01:35.758Z,18.70
2023-03-24T09:04:04.262Z,18.67
2023-03-24T09:06:32.964Z,18.67
2023-03-24T09:09:01.592Z,18.69
2023-03-24T09:11:38.680Z,18.67
2023-03-24T09:14:11.120Z,18.60
2023-03-24T09:16:39.494Z,18.54
2023-03-24T09:19:34.376Z,18.52
2023-03-24T09:22:07.365Z,18.58
2023-03-24T09:24:35.880Z,18.67
2023-03-24T09:27:04.508Z,18.79
2023-03-24T09:29:33.309Z,18.87
2023-03-24T09:32:05.214Z,18.85
2023-03-24T09:34:33.960Z,18.85
2023-03-24T09:37:02.245Z,18.98
2023-03-24T09:39:32.471Z,19.14
2023-03-24T09:42:06.187Z,19.33
2023-03-24T09:44:38.214Z,19.47
2023-03-24T09:47:17.164Z,19.58
2023-03-24T09:49:51.184Z,19.65
2023-03-24T09:52:50.890Z,19.59
2023-03-24T09:55:23.298Z,19.40
2023-03-24T09:57:52.073Z,19.19
2023-03-24T10:00:49.069Z,19.01
2023-03-24T10:03:23.356Z,18.80
2023-03-24T10:06:09.205Z,18.69
2023-03-24T10:08:44.823Z,18.73
2023-03-24T10:11:25.809Z,18.90
2023-03-24T10:14:12.795Z,19.13
2023-03-24T10:17:06.559Z,19.39
2023-03-24T10:19:44.889Z,19.60
2023-03-24T10:22:32.894Z,19.77
2023-03-24T10:25:16.700Z,19.79
2023-03-24T10:27:58.240Z,19.62
2023-03-24T10:30:40.000Z,19.49
2023-03-24T10:33:13.484Z,19.44
2023-03-24T10:36:06.429Z,19.63
2023-03-24T10:38:45.706Z,19.89
2023-03-24T10:41:19.447Z,20.02
2023-03-24T10:43:48.679Z,20.20
2023-03-24T10:46:22.470Z,20.38
2023-03-24T10:49:12.316Z,20.58
2023-03-24T10:51:49.870Z,20.72
2023-03-24T10:54:26.195Z,20.77
2023-03-24T10:56:59.346Z,20.80
2023-03-24T10:59:32.355Z,20.86
2023-03-24T11:02:11.622Z,20.97
2023-03-24T11:04:44.203Z,21.06
2023-03-24T11:07:12.706Z,21.09
2023-03-24T11:09:42.450Z,21.15
2023-03-24T11:12:44.984Z,21.16
2023-03-24T11:15:21.787Z,21.09
2023-03-24T11:18:25.764Z,21.01
2023-03-24T11:21:08.200Z,20.96
2023-03-24T11:23:40.746Z,20.89
2023-03-24T11:26:19.719Z,20.87
2023-03-24T11:28:50.272Z,20.98
2023-03-24T11:31:39.417Z,20.88
2023-03-24T11:34:20.106Z,20.72
2023-03-24T11:36:49.762Z,20.79
2023-03-24T11:39:19.759Z,20.69
2023-03-24T11:41:52.716Z,20.66
2023-03-24T11:44:25.424Z,20.66
2023-03-24T11:46:56.434Z,20.81
2023-03-24T11:49:38.640Z,20.97
2023-03-24T11:52:10.163Z,21.18
2023-03-24T11:54:38.705Z,21.32
2023-03-24T11:57:12.763Z,21.28
2023-03-24T11:59:58.399Z,21.17
2023-03-24T12:02:26.665Z,21.18
2023-03-24T12:05:14.649Z,21.23
2023-03-24T12:08:13.819Z,21.32
2023-03-24T12:11:01.462Z,21.47
2023-03-24T12:13:39.453Z,21.58
2023-03-24T12:16:29.959Z,21.63
2023-03-24T12:19:21.468Z,21.36
2023-03-24T12:22:00.986Z,21.20
2023-03-24T12:25:04.999Z,21.03
2023-03-24T12:27:52.665Z,20.95
2023-03-24T12:30:51.881Z,21.19
2023-03-24T12:33:39.524Z,21.39
2023-03-24T12:36:42.420Z,21.55
2023-03-24T12:39:32.237Z,21.65
2023-03-24T12:42:16.534Z,21.67
2023-03-24T12:45:08.476Z,21.65
2023-03-24T12:47:41.768Z,21.66
2023-03-24T12:50:13.747Z,21.69
2023-03-24T12:53:08.400Z,21.70
2023-03-24T12:55:41.711Z,21.80
2023-03-24T12:58:32.821Z,21.82
2023-03-24T13:01:15.089Z,21.68
2023-03-24T13:04:28.413Z,21.52
2023-03-24T13:07:14.884Z,21.34
2023-03-24T13:09:56.243Z,21.11
2023-03-24T13:12:26.346Z,20.93
2023-03-24T13:15:12.102Z,20.78
2023-03-24T13:18:09.084Z,20.63
2023-03-24T13:20:48.896Z,20.54
2023-03-24T13:23:28.374Z,20.50
2023-03-24T13:26:24.660Z,20.46
2023-03-24T13:29:38.698Z,20.34
2023-03-24T13:32:25.322Z,20.31
2023-03-24T13:35:10.331Z,20.27
2023-03-24T13:37:51.362Z,20.19
2023-03-24T13:40:25.739Z,20.08
2023-03-24T13:42:58.674Z,20.01
2023-03-24T13:45:49.779Z,19.95
2023-03-24T13:48:22.958Z,19.87
2023-03-24T13:50:58.779Z,19.75
2023-03-24T13:53:40.565Z,19.67
2023-03-24T13:56:09.272Z,19.64
2023-03-24T13:58:59.528Z,19.64
2023-03-24T14:01:39.479Z,19.70
2023-03-24T14:04:23.402Z,19.84
2023-03-24T14:06:56.655Z,19.99
2023-03-24T14:09:29.892Z,20.08
2023-03-24T14:13:36.264Z,20.19
2023-03-24T14:16:33.896Z,20.16
2023-03-24T14:22:45.268Z,19.80
2023-03-24T14:25:16.628Z,19.60
2023-03-24T14:28:06.653Z,19.52
2023-03-24T14:30:38.432Z,19.47
2023-03-24T14:33:53.015Z,19.45
2023-03-24T14:36:40.026Z,19.38
2023-03-24T14:39:24.098Z,19.29
2023-03-24T14:41:53.226Z,19.12
2023-03-24T14:44:47.445Z,18.94
2023-03-24T14:47:24.049Z,18.78
2023-03-24T14:49:54.111Z,18.64
2023-03-24T14:52:39.995Z,18.52
2023-03-24T14:55:40.333Z,18.38
2023-03-24T14:58:31.092Z,18.26
2023-03-24T15:01:26.925Z,18.16
2023-03-24T15:04:05.343Z,18.08
2023-03-24T15:06:34.367Z,18.00
2023-03-24T15:09:28.277Z,17.92
2023-03-24T15:12:02.059Z,17.83
2023-03-24T15:14:36.406Z,17.73
2023-03-24T15:17:09.050Z,17.63
2023-03-24T15:19:37.665Z,17.52
2023-03-24T15:22:13.462Z,17.41
2023-03-24T15:24:42.776Z,17.31
2023-03-24T15:27:17.784Z,17.23
2023-03-24T15:29:47.205Z,17.12
2023-03-24T15:32:46.467Z,17.02
2023-03-24T15:35:22.587Z,16.93
2023-03-24T15:37:53.064Z,16.84
2023-03-24T15:40:27.307Z,16.77
2023-03-24T15:43:05.417Z,16.69
2023-03-24T15:46:04.796Z,16.59
2023-03-24T15:48:41.274Z,16.46
2023-03-24T15:51:15.519Z,16.36
2023-03-24T15:53:58.332Z,16.26
2023-03-24T15:56:27.658Z,16.15
2023-03-24T15:59:22.776Z,16.05
2023-03-24T16:01:55.891Z,15.94
2023-03-24T16:04:28.888Z,15.83
2023-03-24T16:06:58.016Z,15.72
2023-03-24T16:09:27.831Z,15.61
2023-03-24T16:11:56.524Z,15.49
2023-03-24T16:14:30.784Z,15.37
2023-03-24T16:17:01.186Z,15.25
2023-03-24T16:19:29.795Z,15.14
2023-03-24T16:21:58.124Z,15.03
2023-03-24T16:24:28.478Z,14.92
2023-03-24T16:26:57.027Z,14.80
2023-03-24T16:29:25.565Z,14.67
2023-03-24T16:31:56.320Z,14.55
2023-03-24T16:34:24.696Z,14.43
2023-03-24T16:36:54.611Z,14.29
2023-03-24T16:39:27.763Z,14.15
2023-03-24T16:42:01.366Z,13.98
2023-03-24T16:44:29.943Z,13.83
2023-03-24T16:46:58.249Z,13.68
2023-03-24T16:49:27.464Z,13.55
2023-03-24T16:51:56.279Z,13.43
2023-03-24T16:54:25.614Z,13.31
2023-03-24T16:56:54.560Z,13.20
2023-03-24T16:59:27.399Z,13.08
2023-03-24T17:01:56.519Z,12.97
2023-03-24T17:04:27.530Z,12.86
2023-03-24T17:06:57.752Z,12.73
2023-03-24T17:09:28.889Z,12.57
2023-03-24T17:11:57.663Z,12.43
2023-03-24T17:14:33.449Z,12.33
2023-03-24T17:17:04.581Z,12.23
2023-03-24T17:19:33.229Z,12.14
2023-03-24T17:22:06.806Z,12.07
2023-03-24T17:24:38.321Z,12.00
2023-03-24T17:27:18.917Z,11.92
2023-03-24T17:29:51.308Z,11.85
2023-03-24T17:32:22.385Z,11.79
2023-03-24T17:34:57.134Z,11.72
2023-03-24T17:37:27.161Z,11.62
2023-03-24T17:40:01.150Z,11.52
2023-03-24T17:42:29.587Z,11.46
2023-03-24T17:44:58.109Z,11.41
2023-03-24T17:47:55.621Z,11.32
2023-03-24T17:50:38.864Z,11.24
2023-03-24T17:53:16.212Z,11.17
2023-03-24T17:55:44.883Z,11.15
2023-03-24T17:58:13.449Z,11.09
2023-03-24T18:00:42.294Z,11.06
2023-03-24T18:03:12.061Z,11.04
2023-03-24T18:05:44.945Z,11.03
2023-03-24T18:08:13.753Z,11.03
2023-03-24T18:10:45.349Z,11.02
2023-03-24T18:13:15.662Z,10.97
2023-03-24T18:16:39.902Z,10.92
2023-03-24T18:19:09.188Z,10.86
2023-03-24T18:21:39.949Z,10.83
2023-03-24T18:24:34.811Z,10.81
2023-03-24T18:27:04.185Z,10.78
2023-03-24T18:29:33.422Z,10.76
2023-03-24T18:32:05.247Z,10.75
2023-03-24T18:34:39.135Z,10.73
2023-03-24T18:37:07.766Z,10.71
2023-03-24T18:39:36.656Z,10.71
2023-03-24T18:42:05.975Z,10.70
2023-03-24T18:44:34.825Z,10.69
2023-03-24T18:47:07.883Z,10.69
2023-03-24T18:49:41.698Z,10.67
2023-03-24T18:52:10.812Z,10.61
2023-03-24T18:54:40.856Z,10.58
2023-03-24T18:57:09.324Z,10.55
2023-03-24T18:59:45.827Z,10.50
2023-03-24T19:02:16.376Z,10.46
2023-03-24T19:04:47.560Z,10.43
2023-03-24T19:07:24.698Z,10.40
2023-03-24T19:09:54.696Z,10.37
2023-03-24T19:12:23.126Z,10.35
2023-03-24T19:14:54.306Z,10.33
2023-03-24T19:17:27.666Z,10.35
2023-03-24T19:19:58.434Z,10.36
2023-03-24T19:22:27.493Z,10.38
2023-03-24T19:24:56.228Z,10.41
2023-03-24T19:27:31.084Z,10.44
2023-03-24T19:30:00.049Z,10.47
2023-03-24T19:32:28.406Z,10.51
2023-03-24T19:34:57.284Z,10.51
2023-03-24T19:37:26.644Z,10.51
2023-03-24T19:39:55.077Z,10.51
2023-03-24T19:42:25.744Z,10.50
2023-03-24T19:44:54.983Z,10.49
2023-03-24T19:47:24.283Z,10.50
2023-03-24T19:49:56.974Z,10.51
2023-03-24T19:52:26.501Z,10.50
2023-03-24T19:54:54.898Z,10.48
2023-03-24T19:57:23.336Z,10.46
2023-03-24T19:59:51.754Z,10.43
2023-03-24T20:02:22.035Z,10.42
2023-03-24T20:04:51.141Z,10.43
2023-03-24T20:07:20.358Z,10.44
2023-03-24T20:09:48.794Z,10.45
2023-03-24T20:12:17.251Z,10.44
2023-03-24T20:14:46.679Z,10.43
2023-03-24T20:17:18.106Z,10.42
2023-03-24T20:19:47.895Z,10.38
2023-03-24T20:22:16.401Z,10.35
2023-03-24T20:24:48.360Z,10.29
2023-03-24T20:27:18.977Z,10.23
2023-03-24T20:30:13.282Z,10.18
2023-03-24T20:32:42.312Z,10.11
2023-03-24T20:35:11.988Z,10.09
2023-03-24T20:37:40.645Z,10.08
2023-03-24T20:40:14.925Z,10.05
2023-03-24T20:42:44.349Z,10.01
2023-03-24T20:45:12.706Z,9.95
2023-03-24T20:47:44.675Z,9.92
2023-03-24T20:50:17.382Z,9.90
2023-03-24T20:52:47.648Z,9.88
2023-03-24T20:55:39.286Z,9.85
2023-03-24T21:05:51.719Z,9.81
2023-03-24T21:08:24.638Z,9.75
2023-03-24T21:11:44.036Z,9.69
2023-03-24T21:14:12.749Z,9.65
2023-03-24T21:16:40.997Z,9.60
2023-03-24T21:19:13.623Z,9.56
2023-03-24T21:21:45.922Z,9.53
2023-03-24T21:24:15.659Z,9.50
2023-03-24T21:26:46.812Z,9.47
2023-03-24T21:29:19.289Z,9.43
2023-03-24T21:31:48.707Z,9.38
2023-03-24T21:34:17.502Z,9.32
2023-03-24T21:36:49.791Z,9.27
2023-03-24T21:39:18.906Z,9.23
2023-03-24T21:41:48.264Z,9.18
2023-03-24T21:44:25.534Z,9.09
2023-03-24T21:46:54.738Z,8.99
2023-03-24T21:49:23.748Z,8.91
2023-03-24T21:51:55.199Z,8.85
2023-03-24T21:54:26.927Z,8.82
2023-03-24T21:56:55.562Z,8.80
2023-03-24T21:59:24.587Z,8.73
2023-03-24T22:01:57.693Z,8.66
2023-03-24T22:04:27.917Z,8.62
2023-03-24T22:07:22.798Z,8.60
2023-03-24T22:09:52.566Z,8.60
2023-03-24T22:12:20.964Z,8.58
2023-03-24T22:14:52.829Z,8.57
2023-03-24T22:17:23.428Z,8.54
2023-03-24T22:19:53.588Z,8.53
2023-03-24T22:22:27.600Z,8.49
2023-03-24T22:24:56.462Z,8.46
2023-03-24T22:27:25.086Z,8.44
2023-03-24T22:29:53.379Z,8.43
2023-03-24T22:32:21.548Z,8.40
2023-03-24T22:34:55.686Z,8.38
2023-03-24T22:37:54.652Z,8.35
2023-03-24T22:40:48.251Z,8.30
2023-03-24T22:43:18.059Z,8.26
2023-03-24T22:45:46.376Z,8.22
2023-03-24T22:48:17.936Z,8.15
2023-03-24T22:50:48.562Z,8.13
2023-03-24T22:53:18.368Z,8.11
2023-03-24T22:55:47.409Z,8.09
2023-03-24T22:58:16.143Z,8.08
2023-03-24T23:00:47.033Z,8.05
2023-03-24T23:03:15.811Z,8.01
2023-03-24T23:05:45.739Z,7.96
2023-03-24T23:08:15.457Z,7.92
2023-03-24T23:10:44.572Z,7.88
2023-03-24T23:13:19.139Z,7.83
2023-03-24T23:16:07.982Z,7.77
2023-03-24T23:18:38.606Z,7.72
2023-03-24T23:21:09.446Z,7.65
2023-03-24T23:23:38.467Z,7.61
2023-03-24T23:26:07.221Z,7.57
2023-03-24T23:28:37.345Z,7.54
2023-03-24T23:31:16.484Z,7.51
2023-03-24T23:33:45.271Z,7.48
2023-03-24T23:36:19.138Z,7.46
2023-03-24T23:38:54.863Z,7.43
2023-03-24T23:41:24.777Z,7.40
2023-03-24T23:43:53.419Z,7.36
2023-03-24T23:46:24.078Z,7.33
2023-03-24T23:48:53.003Z,7.30
2023-03-24T23:51:25.005Z,7.28
2023-03-24T23:53:53.321Z,7.26
2023-03-24T23:56:23.068Z,7.24
2023-03-24T23:58:52.465Z,7.21
